| time (UTC) | temp F | wind direction | speed knots | gust knots | rain 1hr in | rain 24hr in | rain mn in | humidity % | barometer mb |
| 20260906234536 | 53 | 136 | 2.6 | 5.2 | 0.00 | 0.09 | 0.05 | 99 | 989.8 |
| 20260906233031 | 52 | 155 | 3.5 | 7.0 | 0.00 | 0.09 | 0.05 | 99 | 989.9 |
| 20260906231529 | 52 | 122 | 1.7 | 7.0 | 0.00 | 0.09 | 0.05 | 99 | 990.0 |
| 20260906230034 | 53 | 134 | 1.7 | 4.3 | 0.00 | 0.09 | 0.05 | 99 | 990.1 |
| 20260906224524 | 52 | 120 | 2.6 | 5.2 | 0.00 | 0.10 | 0.05 | 99 | 990.3 |
| 20260906223024 | 52 | 149 | 2.6 | 7.0 | 0.00 | 0.10 | 0.05 | 99 | 990.3 |
| 20260906221521 | 52 | 132 | 4.3 | 7.0 | 0.00 | 0.10 | 0.05 | 99 | 990.3 |
| 20260906220021 | 52 | 113 | 2.6 | 5.2 | 0.00 | 0.10 | 0.05 | 99 | 990.4 |
| 20260906214518 | 52 | 132 | 3.5 | 5.2 | 0.00 | 0.11 | 0.05 | 99 | 990.5 |
| 20260906213016 | 51 | 128 | 2.6 | 5.2 | 0.01 | 0.11 | 0.05 | 99 | 990.5 |
| 20260906211515 | 51 | 132 | 3.5 | 5.2 | 0.01 | 0.11 | 0.05 | 99 | 990.6 |
| 20260906210015 | 51 | 145 | 1.7 | 6.1 | 0.02 | 0.11 | 0.05 | 99 | 990.7 |
| 20260906204512 | 51 | 138 | 2.6 | 5.2 | 0.02 | 0.13 | 0.05 | 99 | 990.8 |
| 20260906203025 | 51 | 136 | 3.5 | 5.2 | 0.01 | 0.13 | 0.04 | 99 | 990.9 |
| 20260906201514 | 51 | 142 | 1.7 | 5.2 | 0.01 | 0.13 | 0.04 | 99 | 991.0 |
| 20260906200006 | 50 | 156 | 3.5 | 7.8 | 0.00 | 0.12 | 0.03 | 99 | 991.2 |
| 20260906194506 | 50 | 127 | 3.5 | 6.1 | 0.00 | 0.13 | 0.03 | 99 | 991.2 |
| 20260906193006 | 50 | 109 | 5.2 | 8.7 | 0.00 | 0.13 | 0.03 | 99 | 991.2 |
| 20260906191503 | 50 | 101 | 5.2 | 8.7 | 0.01 | 0.13 | 0.03 | 99 | 991.3 |
| 20260906190002 | 50 | 91 | 4.3 | 7.0 | 0.01 | 0.13 | 0.03 | 99 | 991.5 |
| 20260906184610 | 50 | 72 | 3.5 | 8.7 | 0.01 | 0.13 | 0.03 | 99 | 991.6 |
| 20260906183110 | 49 | 79 | 4.3 | 7.8 | 0.01 | 0.13 | 0.03 | 99 | 991.6 |
| 20260906181601 | 49 | 115 | 2.6 | 5.2 | 0.00 | 0.13 | 0.02 | 99 | 991.7 |
| 20260906180117 | 49 | 94 | 5.2 | 7.8 | 0.00 | 0.13 | 0.02 | 98 | 991.8 |
| 20260906174613 | 49 | 77 | 3.5 | 6.1 | 0.00 | 0.13 | 0.02 | 98 | 992.0 |
| 20260906173050 | 48 | 82 | 2.6 | 5.2 | 0.01 | 0.13 | 0.02 | 98 | 992.1 |
| 20260906171606 | 48 | 64 | 2.6 | 4.3 | 0.01 | 0.13 | 0.02 | 98 | 992.1 |
| 20260906170057 | 48 | 84 | 0.0 | 0.0 | 0.01 | 0.13 | 0.02 | 98 | 992.3 |
| 20260906164542 | 47 | 134 | 0.9 | 2.6 | 0.01 | 0.13 | 0.02 | 98 | 992.8 |
| 20260906163042 | 47 | 133 | 0.0 | 0.0 | 0.00 | 0.12 | 0.02 | 98 | 992.8 |
| 20260906161557 | 47 | 77 | 0.0 | 0.0 | 0.00 | 0.12 | 0.02 | 98 | 992.9 |
| 20260906160040 | 47 | 115 | 0.0 | 0.0 | 0.00 | 0.12 | 0.02 | 98 | 993.0 |
| 20260906154545 | 47 | 70 | 0.0 | 0.0 | 0.00 | 0.12 | 0.02 | 98 | 992.8 |
| 20260906153049 | 47 | 356 | 0.0 | 0.0 | 0.00 | 0.12 | 0.02 | 98 | 992.7 |
| 20260906151538 | 46 | 132 | 0.0 | 0.0 | 0.00 | 0.12 | 0.02 | 99 | 992.9 |
| 20260906150039 | 46 | 233 | 0.0 | 0.0 | 0.00 | 0.12 | 0.02 | 99 | 992.9 |
| 20260906144537 | 46 | 233 | 0.0 | 0.0 | 0.00 | 0.12 | 0.02 | 99 | 992.8 |
| 20260906143034 | 45 | 233 | 0.0 | 0.0 | 0.00 | 0.12 | 0.02 | 98 | 992.8 |
| 20260906141534 | 45 | 208 | 0.0 | 0.0 | 0.00 | 0.12 | 0.02 | 98 | 992.8 |
| 20260906140035 | 46 | 236 | 0.0 | 0.0 | 0.01 | 0.12 | 0.02 | 99 | 992.8 |
| 20260906134532 | 46 | 223 | 0.0 | 0.0 | 0.01 | 0.12 | 0.02 | 99 | 993.1 |
| 20260906133035 | 46 | 203 | 0.0 | 2.6 | 0.01 | 0.12 | 0.02 | 99 | 993.1 |
| 20260906131530 | 46 | 205 | 1.7 | 3.5 | 0.01 | 0.12 | 0.02 | 99 | 993.2 |
| 20260906130032 | 46 | 153 | 0.0 | 0.0 | 0.00 | 0.11 | 0.01 | 99 | 993.3 |
| 20260906124527 | 46 | 141 | 0.0 | 0.0 | 0.00 | 0.11 | 0.01 | 99 | 993.3 |
| 20260906123029 | 45 | 219 | 0.0 | 0.0 | 0.00 | 0.11 | 0.01 | 98 | 993.5 |
| 20260906121533 | 45 | 225 | 0.0 | 0.0 | 0.00 | 0.11 | 0.01 | 98 | 993.6 |
| 20260906120022 | 45 | 225 | 0.0 | 0.0 | 0.00 | 0.11 | 0.01 | 98 | 993.8 |
| 20260906114528 | 45 | 246 | 0.0 | 0.0 | 0.00 | 0.11 | 0.01 | 98 | 994.4 |
| 20260906113020 | 45 | 240 | 0.0 | 0.0 | 0.00 | 0.11 | 0.01 | 98 | 994.3 |
| 20260906111521 | 45 | 242 | 0.0 | 1.7 | 0.00 | 0.11 | 0.01 | 98 | 994.4 |
| 20260906110017 | 45 | 246 | 0.0 | 0.0 | 0.00 | 0.11 | 0.01 | 98 | 994.5 |
| 20260906104516 | 46 | 213 | 0.0 | 0.0 | 0.00 | 0.11 | 0.01 | 98 | 994.8 |
| 20260906103017 | 46 | 205 | 0.0 | 0.0 | 0.00 | 0.11 | 0.01 | 98 | 994.6 |
| 20260906101515 | 46 | 70 | 0.0 | 0.0 | 0.01 | 0.11 | 0.01 | 98 | 994.2 |
| 20260906100026 | 46 | 259 | 0.0 | 0.0 | 0.01 | 0.11 | 0.01 | 98 | 994.3 |
| 20260906094512 | 46 | 325 | 0.0 | 0.0 | 0.01 | 0.11 | 0.01 | 98 | 994.4 |
| 20260906093015 | 46 | 222 | 0.0 | 0.0 | 0.01 | 0.11 | 0.01 | 98 | 994.7 |
| 20260906091511 | 46 | 222 | 0.0 | 0.0 | 0.00 | 0.10 | 0.00 | 98 | 994.8 |
| 20260906090009 | 46 | 222 | 0.0 | 0.0 | 0.00 | 0.10 | 0.00 | 98 | 994.8 |
| 20260906084510 | 46 | 183 | 0.0 | 0.0 | 0.00 | 0.10 | 0.00 | 98 | 995.0 |
| 20260906083005 | 47 | 188 | 0.0 | 0.0 | 0.00 | 0.10 | 0.00 | 98 | 995.4 |
| 20260906081504 | 47 | 187 | 0.0 | 0.0 | 0.00 | 0.10 | 0.00 | 98 | 995.6 |
| 20260906080004 | 47 | 187 | 0.0 | 0.0 | 0.00 | 0.10 | 0.00 | 98 | 995.6 |
| 20260906074503 | 47 | 153 | 0.0 | 0.0 | 0.00 | 0.10 | 0.00 | 98 | 995.5 |
| 20260906073002 | 47 | 153 | 0.0 | 0.0 | 0.00 | 0.10 | 0.00 | 98 | 995.6 |
| 20260906071600 | 47 | 169 | 0.0 | 0.0 | 0.00 | 0.10 | 0.00 | 98 | 995.7 |
| 20260906070059 | 47 | 169 | 0.0 | 0.0 | 0.00 | 0.10 | 0.00 | 98 | 995.8 |
| 20260906064558 | 47 | 56 | 0.0 | 0.0 | 0.00 | 0.10 | 0.00 | 98 | 995.8 |
| 20260906063058 | 46 | 56 | 0.0 | 0.0 | 0.00 | 0.10 | 0.00 | 98 | 995.9 |
| 20260906061556 | 46 | 63 | 0.0 | 0.0 | 0.00 | 0.10 | 0.00 | 98 | 995.9 |
| 20260906060127 | 46 | 309 | 0.0 | 0.0 | 0.00 | 0.10 | 0.00 | 98 | 995.7 |
| 20260906054606 | 46 | 286 | 0.0 | 0.0 | 0.00 | 0.10 | 0.10 | 98 | 995.7 |
| 20260906053053 | 46 | 239 | 0.9 | 3.5 | 0.00 | 0.10 | 0.10 | 98 | 996.0 |
| 20260906051557 | 47 | 270 | 0.0 | 1.7 | 0.00 | 0.10 | 0.10 | 98 | 996.0 |
| 20260906050053 | 47 | 261 | 0.9 | 2.6 | 0.00 | 0.10 | 0.10 | 98 | 996.1 |
| 20260906044551 | 47 | 210 | 0.0 | 0.0 | 0.00 | 0.10 | 0.10 | 98 | 996.1 |
| 20260906043051 | 46 | 233 | 0.0 | 0.0 | 0.00 | 0.10 | 0.10 | 98 | 996.1 |
| 20260906041549 | 46 | 232 | 0.0 | 0.0 | 0.00 | 0.10 | 0.10 | 98 | 995.9 |
| 20260906040048 | 47 | 276 | 0.0 | 4.3 | 0.00 | 0.10 | 0.10 | 98 | 995.9 |
| 20260906034559 | 46 | 314 | 1.7 | 5.2 | 0.00 | 0.10 | 0.10 | 98 | 995.6 |
| 20260906033046 | 46 | 345 | 2.6 | 4.3 | 0.00 | 0.10 | 0.10 | 98 | 995.4 |
| 20260906031543 | 46 | 340 | 3.5 | 6.1 | 0.00 | 0.10 | 0.10 | 98 | 995.1 |
| 20260906030044 | 46 | 1 | 3.5 | 6.1 | 0.00 | 0.10 | 0.10 | 97 | 995.0 |
| 20260906024541 | 46 | 12 | 2.6 | 5.2 | 0.01 | 0.10 | 0.10 | 97 | 994.9 |
| 20260906023042 | 47 | 332 | 3.5 | 6.1 | 0.01 | 0.10 | 0.10 | 97 | 994.9 |
| 20260906021544 | 47 | 1 | 0.0 | 0.0 | 0.01 | 0.10 | 0.10 | 97 | 995.1 |
| 20260906020040 | 47 | 330 | 0.0 | 0.0 | 0.01 | 0.10 | 0.10 | 97 | 995.3 |
| 20260906014547 | 47 | 301 | 0.0 | 2.6 | 0.00 | 0.09 | 0.09 | 97 | 995.3 |
| 20260906013038 | 47 | 316 | 1.7 | 4.3 | 0.00 | 0.09 | 0.09 | 97 | 995.1 |
| 20260906011536 | 47 | 321 | 2.6 | 4.3 | 0.02 | 0.09 | 0.09 | 97 | 995.0 |
| 20260906010040 | 47 | 14 | 1.7 | 5.2 | 0.02 | 0.09 | 0.09 | 97 | 994.9 |
| 20260906004534 | 47 | 9 | 1.7 | 4.3 | 0.02 | 0.09 | 0.09 | 97 | 994.8 |
| 20260906003034 | 47 | 358 | 2.6 | 5.2 | 0.03 | 0.09 | 0.09 | 97 | 994.8 |
| 20260906001547 | 47 | 353 | 1.7 | 3.5 | 0.02 | 0.08 | 0.08 | 97 | 994.8 |
| 20260906000035 | 47 | 351 | 3.5 | 6.1 | 0.02 | 0.08 | 0.08 | 97 | 994.7 |